Time;durP1;ratioP1;P1;durP2;ratioP2;P2;SDS_P1;SDS_P2;PMS_P1;PMS_P2;Temp;Humidity;BMP_temperature;BMP_pressure;BME280_temperature;BME280_humidity;BME280_pressure;Samples;Min_cycle;Max_cycle;Signal;HPM_P1;HPM_P2
2022/11/23 00:01:21;;;;;;;13.73;2.00;;;;;;;;;;4979722;28;20618;-65
2022/11/23 00:03:49;;;;;;;18.13;2.47;;;;;;;;;;4983480;28;20163;-65
2022/11/23 00:06:15;;;;;;;14.52;2.30;;;;;;;;;;4982827;28;20037;-65
2022/11/23 00:08:41;;;;;;;;;;;;;;;;;;4977286;28;20079;-65
2022/11/23 00:11:07;;;;;;;13.90;2.15;;;;;;;;;;4987053;28;19967;-65
2022/11/23 00:13:34;;;;;;;15.77;2.35;;;;;;;;;;5002383;28;20025;-65
2022/11/23 00:16:03;;;;;;;15.00;2.53;;;;;;;;;;5003930;28;20037;-65
2022/11/23 00:18:30;;;;;;;19.50;2.42;;;;;;;;;;5018418;28;20025;-67
2022/11/23 00:20:56;;;;;;;;;;;;;;;;;;5016923;28;20036;-65
2022/11/23 00:23:22;;;;;;;17.35;2.65;;;;;;;;;;5000879;28;19952;-65
2022/11/23 00:25:48;;;;;;;19.00;3.00;;;;;;;;;;5021088;28;20088;-65
2022/11/23 00:28:14;;;;;;;16.75;2.55;;;;;;;;;;5018472;28;20040;-65
2022/11/23 00:30:40;;;;;;;8.95;1.50;;;;;;;;;;5019348;28;20028;-65
2022/11/23 00:33:06;;;;;;;11.10;2.03;;;;;;;;;;5017468;28;20151;-65
2022/11/23 00:35:32;;;;;;;14.23;2.25;;;;;;;;;;5019480;28;20032;-65
2022/11/23 00:37:58;;;;;;;14.98;2.28;;;;;;;;;;5017993;28;20037;-65
2022/11/23 00:40:25;;;;;;;15.93;2.47;;;;;;;;;;5018937;28;20607;-64
2022/11/23 00:42:51;;;;;;;14.35;2.35;;;;;;;;;;5019753;28;20095;-69
2022/11/23 00:45:17;;;;;;;;;;;;;;;;;;5018936;28;20698;-66
2022/11/23 00:47:46;;;;;;;15.55;2.45;;;;;;;;;;5019666;28;19916;-66
2022/11/23 00:50:12;;;;;;;16.08;2.45;;;;;;;;;;4983277;28;20040;-67
2022/11/23 00:52:38;;;;;;;15.15;2.72;;;;;;;;;;5024433;28;20044;-67
2022/11/23 00:55:05;;;;;;;14.32;2.05;;;;;;;;;;5015879;28;20144;-67
2022/11/23 00:57:33;;;;;;;13.38;1.98;;;;;;;;;;5018006;28;20445;-67
2022/11/23 00:59:59;;;;;;;13.25;2.20;;;;;;;;;;5012230;28;20029;-67
2022/11/23 01:02:28;;;;;;;12.57;1.83;;;;;;;;;;5018940;28;20544;-69
2022/11/23 01:04:54;;;;;;;12.82;2.30;;;;;;;;;;5000591;28;20501;-67
2022/11/23 01:07:23;;;;;;;13.25;2.40;;;;;;;;;;5023000;28;20040;-68
2022/11/23 01:09:49;;;;;;;17.17;2.17;;;;;;;;;;5014262;28;20041;-68
2022/11/23 01:12:15;;;;;;;;;;;;;;;;;;5004016;28;20652;-67
2022/11/23 01:14:42;;;;;;;15.13;2.58;;;;;;;;;;5016313;28;20362;-66
2022/11/23 01:17:08;;;;;;;13.00;2.35;;;;;;;;;;5013857;28;20036;-67
2022/11/23 01:19:36;;;;;;;13.65;2.00;;;;;;;;;;5017594;28;20127;-68
2022/11/23 01:22:02;;;;;;;16.80;2.30;;;;;;;;;;5015862;28;20033;-67
2022/11/23 01:24:41;;;;;;;13.05;2.13;;;;;;;;;;4998634;28;20040;-67
2022/11/23 01:27:07;;;;;;;12.27;2.25;;;;;;;;;;5011971;28;20717;-68
2022/11/23 01:29:36;;;;;;;14.52;2.53;;;;;;;;;;5017087;28;20099;-68
2022/11/23 01:32:04;;;;;;;19.50;3.17;;;;;;;;;;5016908;28;20057;-68
2022/11/23 01:34:30;;;;;;;13.75;2.53;;;;;;;;;;4998080;28;20119;-67
2022/11/23 01:36:56;;;;;;;17.35;3.38;;;;;;;;;;4997384;28;20578;-68
2022/11/23 01:39:22;;;;;;;;;;;;;;;;;;5022047;28;20326;-68
2022/11/23 01:41:52;;;;;;;16.40;2.40;;;;;;;;;;4996177;28;20302;-68
2022/11/23 01:44:27;;;;;;;19.80;2.42;;;;;;;;;;5019027;28;20417;-67
2022/11/23 01:46:54;;;;;;;12.85;1.92;;;;;;;;;;5016838;28;20616;-68
2022/11/23 01:49:21;;;;;;;12.90;2.22;;;;;;;;;;5001246;28;20291;-67
2022/11/23 01:52:01;;;;;;;13.10;2.45;;;;;;;;;;5006137;28;20041;-65
2022/11/23 01:54:30;;;;;;;15.38;2.17;;;;;;;;;;5009086;28;20082;-64
2022/11/23 01:57:11;;;;;;;15.38;2.15;;;;;;;;;;5015544;28;20029;-65
2022/11/23 01:59:37;;;;;;;14.30;2.20;;;;;;;;;;5001294;28;20691;-65
2022/11/23 02:02:04;;;;;;;11.93;2.05;;;;;;;;;;5013175;28;20103;-65
2022/11/23 02:04:30;;;;;;;;;;;;;;;;;;5021334;28;20214;-64
2022/11/23 02:06:57;;;;;;;13.80;2.17;;;;;;;;;;5014303;28;20379;-67
2022/11/23 02:09:23;;;;;;;13.25;2.47;;;;;;;;;;5017653;28;20073;-66
2022/11/23 02:11:51;;;;;;;13.82;2.15;;;;;;;;;;5009743;28;20372;-67
2022/11/23 02:14:17;;;;;;;12.55;2.00;;;;;;;;;;4999158;28;20430;-66
2022/11/23 02:16:44;;;;;;;14.80;2.20;;;;;;;;;;5018892;28;20029;-64
2022/11/23 02:19:17;;;;;;;14.88;2.55;;;;;;;;;;5014439;28;20029;-66
2022/11/23 02:21:44;;;;;;;16.25;2.72;;;;;;;;;;5017815;28;20040;-66
2022/11/23 02:24:34;;;;;;;15.38;2.63;;;;;;;;;;5011224;28;20044;-66
2022/11/23 02:27:03;;;;;;;12.15;1.98;;;;;;;;;;5015582;28;20047;-66
2022/11/23 02:29:29;;;;;;;13.35;1.85;;;;;;;;;;4998900;28;20118;-66
2022/11/23 02:31:55;;;;;;;;;;;;;;;;;;5018315;28;20124;-65
2022/11/23 02:34:21;;;;;;;13.32;2.10;;;;;;;;;;5005792;28;20398;-65
2022/11/23 02:36:49;;;;;;;12.70;1.73;;;;;;;;;;5023586;28;20076;-66
2022/11/23 02:39:18;;;;;;;11.75;1.90;;;;;;;;;;5022597;28;20029;-65
2022/11/23 02:41:46;;;;;;;11.38;1.83;;;;;;;;;;5008538;28;20066;-66
2022/11/23 02:44:48;;;;;;;12.18;2.03;;;;;;;;;;5019361;28;20142;-65
2022/11/23 02:47:14;;;;;;;16.40;1.80;;;;;;;;;;4941040;28;20046;-65
2022/11/23 02:49:41;;;;;;;13.50;2.00;;;;;;;;;;4939552;28;20984;-65
2022/11/23 02:52:08;;;;;;;12.27;1.92;;;;;;;;;;4920252;28;20186;-65
2022/11/23 02:54:34;;;;;;;13.77;2.10;;;;;;;;;;4922524;28;20089;-64
2022/11/23 02:57:01;;;;;;;11.98;1.90;;;;;;;;;;4938000;28;20129;-67
2022/11/23 02:59:29;;;;;;;9.45;1.80;;;;;;;;;;4924177;28;20437;-67
2022/11/23 03:01:57;;;;;;;10.02;1.40;;;;;;;;;;4936599;28;20051;-67
2022/11/23 03:04:24;;;;;;;10.13;1.80;;;;;;;;;;4942324;28;20267;-66
2022/11/23 03:06:50;;;;;;;;;;;;;;;;;;4938338;28;20572;-67
2022/11/23 03:09:18;;;;;;;10.95;1.73;;;;;;;;;;4937699;28;19914;-66
2022/11/23 03:11:47;;;;;;;13.05;1.70;;;;;;;;;;4943130;28;20980;-66
2022/11/23 03:14:13;;;;;;;8.70;1.50;;;;;;;;;;4936891;28;20062;-66
2022/11/23 03:16:39;;;;;;;15.98;1.63;;;;;;;;;;4922571;28;20023;-66
2022/11/23 03:19:05;;;;;;;;;;;;;;;;;;4919536;28;21304;-64
2022/11/23 03:21:31;;;;;;;12.73;1.50;;;;;;;;;;4970853;28;20419;-65
2022/11/23 03:23:57;;;;;;;10.48;1.42;;;;;;;;;;5001431;28;20541;-65
2022/11/23 03:26:23;;;;;;;9.43;1.45;;;;;;;;;;5002616;28;20294;-65
2022/11/23 03:28:50;;;;;;;7.93;1.02;;;;;;;;;;5014606;28;20040;-66
2022/11/23 03:31:16;;;;;;;10.65;1.40;;;;;;;;;;5003608;28;20033;-65
2022/11/23 03:33:42;;;;;;;9.68;1.60;;;;;;;;;;5021290;28;20119;-65
2022/11/23 03:36:08;;;;;;;9.70;1.55;;;;;;;;;;5016787;28;20032;-65
2022/11/23 03:38:34;;;;;;;;;;;;;;;;;;5002827;28;20553;-65
2022/11/23 03:41:00;;;;;;;11.40;1.40;;;;;;;;;;5014953;28;20159;-65
2022/11/23 03:43:26;;;;;;;8.50;1.42;;;;;;;;;;5004139;28;20474;-65
2022/11/23 03:45:52;;;;;;;10.77;1.75;;;;;;;;;;4997291;28;20107;-65
2022/11/23 03:48:18;;;;;;;8.00;1.63;;;;;;;;;;5018260;28;20043;-65
2022/11/23 03:50:45;;;;;;;7.75;1.60;;;;;;;;;;5017187;28;20039;-65
2022/11/23 03:53:11;;;;;;;10.73;1.50;;;;;;;;;;4999690;28;20131;-65
2022/11/23 03:55:37;;;;;;;9.20;1.50;;;;;;;;;;5001293;28;21805;-65
2022/11/23 03:58:03;;;;;;;8.68;1.55;;;;;;;;;;5017629;28;20035;-65
2022/11/23 04:00:30;;;;;;;8.02;1.25;;;;;;;;;;5001333;28;20392;-65
2022/11/23 04:02:57;;;;;;;9.77;1.67;;;;;;;;;;5014552;28;20033;-65
2022/11/23 04:05:23;;;;;;;9.80;1.48;;;;;;;;;;5002638;28;20477;-64
2022/11/23 04:07:50;;;;;;;9.00;1.65;;;;;;;;;;5019399;28;20072;-65
2022/11/23 04:10:16;;;;;;;9.98;1.80;;;;;;;;;;5001082;28;20095;-64
2022/11/23 04:12:42;;;;;;;8.57;1.38;;;;;;;;;;5002225;28;20140;-65
2022/11/23 04:15:12;;;;;;;13.45;1.52;;;;;;;;;;5015423;28;22416;-65
2022/11/23 04:17:38;;;;;;;8.50;1.45;;;;;;;;;;4998901;28;20032;-67
2022/11/23 04:20:05;;;;;;;8.52;1.25;;;;;;;;;;5013358;28;20027;-67
2022/11/23 04:22:31;;;;;;;13.05;1.67;;;;;;;;;;5015528;28;20033;-65
2022/11/23 04:24:57;;;;;;;8.43;2.03;;;;;;;;;;5019547;28;20120;-65
2022/11/23 04:27:23;;;;;;;7.22;1.17;;;;;;;;;;5018079;28;20036;-65
2022/11/23 04:29:52;;;;;;;7.90;1.30;;;;;;;;;;5013244;28;20454;-65
2022/11/23 04:32:18;;;;;;;12.63;1.60;;;;;;;;;;5005087;28;20036;-65
2022/11/23 04:34:44;;;;;;;10.40;1.50;;;;;;;;;;5018327;28;20029;-65
2022/11/23 04:37:12;;;;;;;9.57;1.60;;;;;;;;;;5015299;28;20044;-65
2022/11/23 04:39:42;;;;;;;9.23;1.25;;;;;;;;;;4996573;28;20032;-64
2022/11/23 04:42:10;;;;;;;7.25;1.23;;;;;;;;;;5015813;28;21575;-65
2022/11/23 04:44:36;;;;;;;11.63;1.80;;;;;;;;;;5001006;28;20047;-65
2022/11/23 04:47:06;;;;;;;9.93;1.60;;;;;;;;;;5018184;28;20391;-67
2022/11/23 04:49:32;;;;;;;13.85;1.48;;;;;;;;;;5018374;28;20025;-65
2022/11/23 04:51:58;;;;;;;10.95;1.67;;;;;;;;;;4998110;28;20032;-65
2022/11/23 04:54:24;;;;;;;12.00;1.73;;;;;;;;;;5018133;28;20534;-67
2022/11/23 04:56:50;;;;;;;8.20;1.58;;;;;;;;;;5019503;28;20067;-66
2022/11/23 04:59:16;;;;;;;;;;;;;;;;;;5022599;28;20360;-67
2022/11/23 05:01:42;;;;;;;10.65;1.50;;;;;;;;;;5001226;28;19922;-67
2022/11/23 05:04:09;;;;;;;10.27;1.88;;;;;;;;;;5017262;28;23636;-67
2022/11/23 05:06:47;;;;;;;10.98;1.50;;;;;;;;;;5000386;28;20036;-65
2022/11/23 05:09:14;;;;;;;9.43;1.70;;;;;;;;;;4996179;28;20458;-66
2022/11/23 05:11:47;;;;;;;;;;;;;;;;;;5015629;28;20061;-65
2022/11/23 05:14:13;;;;;;;11.60;2.20;;;;;;;;;;5012997;28;20015;-65
2022/11/23 05:16:40;;;;;;;13.65;1.90;;;;;;;;;;5019812;28;20107;-67
2022/11/23 05:19:06;;;;;;;16.80;2.22;;;;;;;;;;4997017;28;20037;-67
2022/11/23 05:21:32;;;;;;;14.38;2.10;;;;;;;;;;5000244;28;20191;-67
2022/11/23 05:23:59;;;;;;;13.73;1.83;;;;;;;;;;5014836;28;20048;-66
2022/11/23 05:26:25;;;;;;;9.80;1.80;;;;;;;;;;5024009;28;20119;-65
2022/11/23 05:28:51;;;;;;;11.13;1.90;;;;;;;;;;5017719;28;20024;-66
2022/11/23 05:31:20;;;;;;;;;;;;;;;;;;5023818;28;20721;-66
2022/11/23 05:33:49;;;;;;;14.27;2.03;;;;;;;;;;5023472;28;19923;-66
2022/11/23 05:36:15;;;;;;;11.38;1.40;;;;;;;;;;5001364;28;20123;-67
2022/11/23 05:38:42;;;;;;;12.40;1.95;;;;;;;;;;5001111;28;20674;-67
2022/11/23 05:41:08;;;;;;;;;;;;;;;;;;5016500;28;20040;-67
2022/11/23 05:43:34;;;;;;;12.45;1.90;;;;;;;;;;5018627;28;19917;-65
2022/11/23 05:46:00;;;;;;;;;;;;;;;;;;5019128;28;20248;-68
2022/11/23 05:48:26;;;;;;;14.48;2.10;;;;;;;;;;5004014;28;19921;-67
2022/11/23 05:50:54;;;;;;;14.75;2.10;;;;;;;;;;5015183;28;20025;-67
2022/11/23 05:53:21;;;;;;;12.93;2.35;;;;;;;;;;5002825;28;20037;-67
2022/11/23 05:55:47;;;;;;;11.88;1.92;;;;;;;;;;5019347;28;20040;-67
2022/11/23 05:58:15;;;;;;;14.10;2.10;;;;;;;;;;5025656;28;20090;-67
2022/11/23 06:00:41;;;;;;;11.73;1.98;;;;;;;;;;5017287;28;20033;-67
2022/11/23 06:03:07;;;;;;;14.00;2.38;;;;;;;;;;5014888;28;20033;-67
2022/11/23 06:05:34;;;;;;;13.43;1.80;;;;;;;;;;5021549;28;20040;-67
2022/11/23 06:08:00;;;;;;;14.20;2.20;;;;;;;;;;5019692;28;20041;-68
2022/11/23 06:10:26;;;;;;;11.52;2.00;;;;;;;;;;5021710;28;20036;-65
2022/11/23 06:12:52;;;;;;;;;;;;;;;;;;5020083;28;20367;-65
2022/11/23 06:15:22;;;;;;;11.73;2.13;;;;;;;;;;5022978;28;19920;-65
2022/11/23 06:17:48;;;;;;;12.50;2.20;;;;;;;;;;5022606;28;20266;-66
2022/11/23 06:20:14;;;;;;;14.82;2.03;;;;;;;;;;5022160;28;20120;-67
2022/11/23 06:22:40;;;;;;;;;;;;;;;;;;5020670;28;20059;-67
2022/11/23 06:25:07;;;;;;;13.10;2.17;;;;;;;;;;5021260;28;19912;-65
2022/11/23 06:27:32;;;;;;;;;;;;;;;;;;5018110;28;20400;-65
2022/11/23 06:29:59;;;;;;;11.10;1.95;;;;;;;;;;4998817;28;19948;-65
2022/11/23 06:32:25;;;;;;;11.02;1.92;;;;;;;;;;5020869;28;20076;-65
2022/11/23 06:34:54;;;;;;;10.65;2.15;;;;;;;;;;5018656;28;20037;-65
2022/11/23 06:37:21;;;;;;;14.40;2.03;;;;;;;;;;5022879;28;20035;-64
2022/11/23 06:39:47;;;;;;;13.15;2.35;;;;;;;;;;5025398;28;20838;-67
2022/11/23 06:42:16;;;;;;;14.95;2.30;;;;;;;;;;5000541;28;20098;-67
2022/11/23 06:44:42;;;;;;;16.52;2.63;;;;;;;;;;5005421;28;20035;-67
2022/11/23 06:47:09;;;;;;;14.75;2.45;;;;;;;;;;5016750;28;20744;-66
2022/11/23 06:49:35;;;;;;;17.58;2.80;;;;;;;;;;5017039;28;20207;-67
2022/11/23 06:52:01;;;;;;;;;;;;;;;;;;5000715;28;20043;-67
2022/11/23 06:54:27;;;;;;;13.38;2.13;;;;;;;;;;5023985;28;19999;-64
2022/11/23 06:56:53;;;;;;;12.68;2.35;;;;;;;;;;5015571;28;20021;-65
2022/11/23 06:59:19;;;;;;;11.90;2.40;;;;;;;;;;5019415;28;20033;-65
2022/11/23 07:01:46;;;;;;;15.02;2.72;;;;;;;;;;5022891;28;20044;-65
2022/11/23 07:04:12;;;;;;;10.38;1.95;;;;;;;;;;5021040;28;20059;-65
2022/11/23 07:06:40;;;;;;;;;;;;;;;;;;5022456;28;20407;-65
2022/11/23 07:09:06;;;;;;;13.63;2.50;;;;;;;;;;5015030;28;19990;-65
2022/11/23 07:11:32;;;;;;;;;;;;;;;;;;5002065;28;20561;-67
2022/11/23 07:13:58;;;;;;;17.45;3.25;;;;;;;;;;5020874;28;19921;-67
2022/11/23 07:16:24;;;;;;;15.10;3.00;;;;;;;;;;5021247;28;20029;-65
2022/11/23 07:18:50;;;;;;;16.30;2.70;;;;;;;;;;4998942;28;20060;-67
2022/11/23 07:21:16;;;;;;;16.77;3.22;;;;;;;;;;5018988;28;20028;-67
2022/11/23 07:23:43;;;;;;;12.75;2.47;;;;;;;;;;5002289;28;20059;-67
2022/11/23 07:26:09;;;;;;;;;;;;;;;;;;5018162;28;21446;-66
2022/11/23 07:28:35;;;;;;;11.60;2.17;;;;;;;;;;5022420;28;20312;-65
2022/11/23 07:31:01;;;;;;;10.38;1.90;;;;;;;;;;4995049;28;20025;-66
2022/11/23 07:33:27;;;;;;;12.07;2.20;;;;;;;;;;5021233;28;20381;-66
2022/11/23 07:35:54;;;;;;;8.40;1.55;;;;;;;;;;5014759;28;20414;-66
2022/11/23 07:38:20;;;;;;;9.55;1.35;;;;;;;;;;5024642;28;20044;-65
2022/11/23 07:40:49;;;;;;;9.63;1.75;;;;;;;;;;5001830;28;20033;-65
2022/11/23 07:43:15;;;;;;;9.63;1.80;;;;;;;;;;5020744;28;20032;-66
2022/11/23 07:45:41;;;;;;;8.07;1.45;;;;;;;;;;5020230;28;20360;-66
2022/11/23 07:48:09;;;;;;;14.98;2.00;;;;;;;;;;5017323;28;20033;-64
2022/11/23 07:50:36;;;;;;;9.00;1.55;;;;;;;;;;5022082;28;20558;-64
2022/11/23 07:53:03;;;;;;;10.77;1.55;;;;;;;;;;5017120;28;20048;-64
2022/11/23 07:55:30;;;;;;;11.55;2.20;;;;;;;;;;5021269;28;20455;-65
2022/11/23 07:57:59;;;;;;;8.70;1.50;;;;;;;;;;5002926;28;20052;-64
2022/11/23 08:00:32;;;;;;;10.13;1.60;;;;;;;;;;5003463;28;20021;-67
2022/11/23 08:02:58;;;;;;;10.85;1.95;;;;;;;;;;5021840;28;20045;-67
2022/11/23 08:05:25;;;;;;;;;;;;;;;;;;5020122;28;20120;-64
2022/11/23 08:07:51;;;;;;;13.45;2.13;;;;;;;;;;5011668;28;20453;-64
2022/11/23 08:10:17;;;;;;;9.95;1.95;;;;;;;;;;5019927;28;20032;-65
2022/11/23 08:12:43;;;;;;;11.00;1.75;;;;;;;;;;5016878;28;20041;-64
2022/11/23 08:15:10;;;;;;;9.45;1.70;;;;;;;;;;5003234;28;21425;-65
2022/11/23 08:17:36;;;;;;;10.25;1.70;;;;;;;;;;5002619;28;20029;-64
2022/11/23 08:20:03;;;;;;;9.80;1.60;;;;;;;;;;5000801;28;20032;-67
2022/11/23 08:22:28;;;;;;;;;;;;;;;;;;5019737;28;20374;-65
2022/11/23 08:24:55;;;;;;;10.32;1.70;;;;;;;;;;4998827;28;19939;-66
2022/11/23 08:27:20;;;;;;;;;;;;;;;;;;5000524;28;20041;-65
2022/11/23 08:29:47;;;;;;;7.57;1.42;;;;;;;;;;5019937;28;19913;-66
2022/11/23 08:32:13;;;;;;;;;;;;;;;;;;5020410;28;20028;-66
2022/11/23 08:34:39;;;;;;;10.23;1.80;;;;;;;;;;4998649;28;19912;-66
2022/11/23 08:37:05;;;;;;;8.70;1.60;;;;;;;;;;5018059;28;20534;-66
2022/11/23 08:39:32;;;;;;;10.15;1.83;;;;;;;;;;5020377;28;20059;-66
2022/11/23 08:41:58;;;;;;;;;;;;;;;;;;5017418;28;21482;-65
2022/11/23 08:44:24;;;;;;;10.57;1.58;;;;;;;;;;5017668;28;20406;-67
2022/11/23 08:46:50;;;;;;;10.38;1.85;;;;;;;;;;5014933;28;20122;-67
2022/11/23 08:49:16;;;;;;;;;;;;;;;;;;5006009;28;20123;-67
2022/11/23 08:51:42;;;;;;;11.02;2.00;;;;;;;;;;5021124;28;19917;-66
2022/11/23 08:54:08;;;;;;;9.25;2.00;;;;;;;;;;5014033;28;22756;-66
2022/11/23 08:56:35;;;;;;;11.07;2.15;;;;;;;;;;5019593;28;20032;-66
2022/11/23 08:59:01;;;;;;;10.48;1.70;;;;;;;;;;5017938;28;20041;-66
2022/11/23 09:01:27;;;;;;;9.55;1.90;;;;;;;;;;5020501;28;20029;-66
2022/11/23 09:03:53;;;;;;;8.88;1.58;;;;;;;;;;4995876;28;20059;-66
2022/11/23 09:06:25;;;;;;;11.45;1.48;;;;;;;;;;5017033;28;20115;-65
2022/11/23 09:08:52;;;;;;;9.15;1.45;;;;;;;;;;5013983;28;20150;-66
2022/11/23 09:11:18;;;;;;;10.32;1.70;;;;;;;;;;5021703;28;20543;-65
2022/11/23 09:13:44;;;;;;;8.70;1.80;;;;;;;;;;5018772;28;20114;-65
2022/11/23 09:16:10;;;;;;;11.13;1.80;;;;;;;;;;5014564;28;20071;-65
2022/11/23 09:18:36;;;;;;;7.47;1.58;;;;;;;;;;5001807;28;20038;-65
2022/11/23 09:21:03;;;;;;;10.80;1.58;;;;;;;;;;5018697;28;20021;-65
2022/11/23 09:23:30;;;;;;;11.45;1.88;;;;;;;;;;5000996;28;20565;-65
2022/11/23 09:25:59;;;;;;;11.32;1.88;;;;;;;;;;5016662;28;20032;-65
2022/11/23 09:28:27;;;;;;;11.25;2.00;;;;;;;;;;4995223;28;20666;-66
2022/11/23 09:30:54;;;;;;;8.82;1.67;;;;;;;;;;4995649;28;20410;-66
2022/11/23 09:33:20;;;;;;;8.25;1.70;;;;;;;;;;5023235;28;20033;-66
2022/11/23 09:35:46;;;;;;;12.80;2.05;;;;;;;;;;4998119;28;20398;-65
2022/11/23 09:38:13;;;;;;;10.13;2.10;;;;;;;;;;5015493;28;20032;-66
2022/11/23 09:40:45;;;;;;;11.52;2.17;;;;;;;;;;5002933;28;20588;-66
2022/11/23 09:43:26;;;;;;;12.65;2.10;;;;;;;;;;5020796;28;20041;-65
2022/11/23 09:45:53;;;;;;;11.73;1.95;;;;;;;;;;5014406;28;20044;-65
2022/11/23 09:48:39;;;;;;;8.93;2.00;;;;;;;;;;5016849;28;20825;-67
2022/11/23 09:51:32;;;;;;;10.20;1.75;;;;;;;;;;4995169;28;20120;-66
2022/11/23 09:54:05;;;;;;;10.77;1.85;;;;;;;;;;4997915;28;20164;-65
2022/11/23 09:56:36;;;;;;;11.05;2.28;;;;;;;;;;5015875;28;20021;-67
2022/11/23 09:59:05;;;;;;;10.15;1.95;;;;;;;;;;4996044;28;20059;-67
2022/11/23 10:01:31;;;;;;;11.25;2.13;;;;;;;;;;5020337;28;20032;-67
2022/11/23 10:03:57;;;;;;;10.50;2.22;;;;;;;;;;5014103;28;20048;-67
2022/11/23 10:06:28;;;;;;;10.80;2.25;;;;;;;;;;5000136;28;20048;-67
2022/11/23 10:08:59;;;;;;;9.23;1.70;;;;;;;;;;5014371;28;20589;-67
2022/11/23 10:11:26;;;;;;;10.07;1.60;;;;;;;;;;4996471;28;20556;-67
2022/11/23 10:14:01;;;;;;;12.00;2.45;;;;;;;;;;5018879;28;20419;-67
2022/11/23 10:16:27;;;;;;;13.98;2.90;;;;;;;;;;5026057;28;20041;-67
2022/11/23 10:18:59;;;;;;;12.88;2.40;;;;;;;;;;5017595;28;20024;-68
2022/11/23 10:21:29;;;;;;;10.38;2.05;;;;;;;;;;5025304;28;20041;-67
2022/11/23 10:24:07;;;;;;;13.52;2.45;;;;;;;;;;5022585;28;20803;-67
2022/11/23 10:26:42;;;;;;;12.90;2.10;;;;;;;;;;5017114;28;20021;-67
2022/11/23 10:29:14;;;;;;;11.75;2.20;;;;;;;;;;4995599;28;20031;-69
2022/11/23 10:31:43;;;;;;;11.98;2.22;;;;;;;;;;5017871;28;20035;-67
2022/11/23 10:34:11;;;;;;;12.07;2.00;;;;;;;;;;4995006;28;20240;-70
2022/11/23 10:36:38;;;;;;;14.00;2.60;;;;;;;;;;5001095;28;20546;-67
2022/11/23 10:39:16;;;;;;;11.07;2.00;;;;;;;;;;4995056;28;20044;-68
2022/11/23 10:41:45;;;;;;;12.60;2.47;;;;;;;;;;5019308;28;20037;-67
2022/11/23 10:44:17;;;;;;;11.25;1.90;;;;;;;;;;5011269;28;20651;-68
2022/11/23 10:46:43;;;;;;;8.27;1.88;;;;;;;;;;4996248;28;20051;-68
2022/11/23 10:49:17;;;;;;;11.68;2.40;;;;;;;;;;5010715;28;20714;-67
2022/11/23 10:51:55;;;;;;;16.02;2.75;;;;;;;;;;4997395;28;20040;-67
2022/11/23 10:54:24;;;;;;;12.38;2.50;;;;;;;;;;5016895;28;20100;-67
2022/11/23 10:56:51;;;;;;;11.30;2.03;;;;;;;;;;5014815;28;20037;-67
2022/11/23 10:59:34;;;;;;;12.00;2.75;;;;;;;;;;5016676;28;20033;-69
2022/11/23 11:02:03;;;;;;;14.13;2.33;;;;;;;;;;5014876;28;20037;-69
2022/11/23 11:04:29;;;;;;;12.40;3.10;;;;;;;;;;5017294;28;20174;-68
2022/11/23 11:07:14;;;;;;;12.35;2.45;;;;;;;;;;5020436;28;20041;-68
2022/11/23 11:09:40;;;;;;;13.77;2.15;;;;;;;;;;4999261;28;20041;-67
2022/11/23 11:12:16;;;;;;;13.00;2.50;;;;;;;;;;5015764;28;20084;-68
2022/11/23 11:14:54;;;;;;;10.35;2.35;;;;;;;;;;5015262;28;20029;-66
2022/11/23 11:17:27;;;;;;;9.38;2.05;;;;;;;;;;5025614;28;20036;-69
2022/11/23 11:19:54;;;;;;;11.98;2.13;;;;;;;;;;4995393;28;20671;-67
2022/11/23 11:22:29;;;;;;;12.48;2.55;;;;;;;;;;5022229;28;20024;-68
2022/11/23 11:24:55;;;;;;;12.23;2.78;;;;;;;;;;5021462;28;20051;-68
2022/11/23 11:27:22;;;;;;;10.98;2.33;;;;;;;;;;5021298;28;20028;-69
2022/11/23 11:29:50;;;;;;;12.50;2.35;;;;;;;;;;5020267;28;20411;-69
2022/11/23 11:32:16;;;;;;;12.75;2.15;;;;;;;;;;5020919;28;20425;-69
2022/11/23 11:34:50;;;;;;;8.73;2.03;;;;;;;;;;5024710;28;20184;-69
2022/11/23 11:37:45;;;;;;;9.00;1.70;;;;;;;;;;5007596;28;20025;-68
2022/11/23 11:40:28;;;;;;;11.50;2.13;;;;;;;;;;4886538;29;20043;-69
2022/11/23 11:43:06;;;;;;;11.25;2.30;;;;;;;;;;4897263;28;20522;-68
2022/11/23 11:45:38;;;;;;;11.35;2.40;;;;;;;;;;4899042;28;20095;-66
2022/11/23 11:48:13;;;;;;;11.30;2.20;;;;;;;;;;4905125;28;20142;-68
2022/11/23 11:50:48;;;;;;;12.10;2.75;;;;;;;;;;4903440;28;20039;-67
2022/11/23 11:53:20;;;;;;;11.07;2.23;;;;;;;;;;4902019;28;20031;-66
2022/11/23 11:55:56;;;;;;;10.02;2.58;;;;;;;;;;4913359;28;20074;-67
2022/11/23 11:58:27;;;;;;;11.95;2.85;;;;;;;;;;4898602;28;20044;-68
2022/11/23 12:01:02;;;;;;;12.73;3.08;;;;;;;;;;4894666;28;20075;-68
2022/11/23 12:03:40;;;;;;;14.37;3.43;;;;;;;;;;4904142;28;20406;-68
2022/11/23 12:06:32;;;;;;;14.00;3.22;;;;;;;;;;4905899;28;20351;-70
2022/11/23 12:09:06;;;;;;;15.15;3.13;;;;;;;;;;4900122;28;20054;-68
2022/11/23 12:11:33;;;;;;;17.02;3.30;;;;;;;;;;4906265;29;20142;-68
2022/11/23 12:14:04;;;;;;;12.70;2.85;;;;;;;;;;4901269;28;20028;-68
2022/11/23 12:16:56;;;;;;;13.45;3.35;;;;;;;;;;4948692;28;20477;-68
2022/11/23 12:19:39;;;;;;;11.77;2.60;;;;;;;;;;5012878;28;20033;-68
2022/11/23 12:22:26;;;;;;;13.52;2.70;;;;;;;;;;5017619;28;20520;-69
2022/11/23 12:25:22;;;;;;;11.43;3.00;;;;;;;;;;5013030;28;20024;-68
2022/11/23 12:28:16;;;;;;;13.05;2.90;;;;;;;;;;4945506;28;20046;-68
2022/11/23 12:30:45;;;;;;;15.18;3.08;;;;;;;;;;4941144;28;20110;-68
2022/11/23 12:33:26;;;;;;;14.60;2.70;;;;;;;;;;4936671;28;20158;-68
2022/11/23 12:35:55;;;;;;;12.60;2.80;;;;;;;;;;4942160;28;20047;-69
2022/11/23 12:38:51;;;;;;;11.57;3.03;;;;;;;;;;4924277;28;20039;-68
2022/11/23 12:41:20;;;;;;;13.45;2.88;;;;;;;;;;4939670;28;20046;-69
2022/11/23 12:44:09;;;;;;;13.02;2.85;;;;;;;;;;4939166;28;20053;-67
2022/11/23 12:46:38;;;;;;;15.70;3.35;;;;;;;;;;4937682;28;20054;-68
2022/11/23 12:49:05;;;;;;;14.18;2.95;;;;;;;;;;4937711;28;20035;-68
2022/11/23 12:51:34;;;;;;;16.23;2.85;;;;;;;;;;4940828;28;20129;-68
2022/11/23 12:54:19;;;;;;;14.20;3.05;;;;;;;;;;4921104;28;20162;-68
2022/11/23 12:56:51;;;;;;;9.60;2.55;;;;;;;;;;4942552;28;20039;-69
2022/11/23 12:59:17;;;;;;;12.23;2.88;;;;;;;;;;4926649;28;20114;-68
2022/11/23 13:02:03;;;;;;;10.85;2.70;;;;;;;;;;4924254;28;20457;-68
2022/11/23 13:04:55;;;;;;;9.82;2.50;;;;;;;;;;4973188;28;21017;-68
2022/11/23 13:07:27;;;;;;;12.80;2.60;;;;;;;;;;5016945;28;20040;-67
2022/11/23 13:10:19;;;;;;;13.43;3.03;;;;;;;;;;4997090;28;20037;-69
2022/11/23 13:12:49;;;;;;;12.73;2.97;;;;;;;;;;5000559;28;20584;-68
2022/11/23 13:15:15;;;;;;;12.73;3.03;;;;;;;;;;5002398;28;20780;-68
2022/11/23 13:17:47;;;;;;;14.93;2.88;;;;;;;;;;5004078;28;20017;-67
2022/11/23 13:20:29;;;;;;;13.82;3.03;;;;;;;;;;5010494;28;20039;-67
2022/11/23 13:22:58;;;;;;;14.13;2.70;;;;;;;;;;5013552;28;20194;-68
2022/11/23 13:25:28;;;;;;;11.88;2.85;;;;;;;;;;5003818;28;20033;-67
2022/11/23 13:27:59;;;;;;;13.95;2.78;;;;;;;;;;5015671;28;20025;-67
2022/11/23 13:30:25;;;;;;;13.60;2.65;;;;;;;;;;5017924;28;20372;-67
2022/11/23 13:32:54;;;;;;;14.57;3.15;;;;;;;;;;4999460;28;20062;-67
2022/11/23 13:35:22;;;;;;;11.85;3.28;;;;;;;;;;5016877;28;20052;-68
2022/11/23 13:37:51;;;;;;;12.25;2.55;;;;;;;;;;5006932;28;20025;-68
2022/11/23 13:40:33;;;;;;;12.13;2.88;;;;;;;;;;4996920;28;20326;-67
2022/11/23 13:43:05;;;;;;;11.32;2.53;;;;;;;;;;5018268;28;20278;-68
2022/11/23 13:45:35;;;;;;;12.38;2.35;;;;;;;;;;4996175;28;20045;-67
2022/11/23 13:48:08;;;;;;;12.57;2.53;;;;;;;;;;5014675;28;20053;-67
2022/11/23 13:50:35;;;;;;;10.40;3.00;;;;;;;;;;5003787;28;20479;-67
2022/11/23 13:53:02;;;;;;;10.63;2.80;;;;;;;;;;4999165;28;20028;-67
2022/11/23 13:55:33;;;;;;;12.80;3.03;;;;;;;;;;5004604;28;20147;-67
2022/11/23 13:58:18;;;;;;;12.23;3.00;;;;;;;;;;5004902;28;20335;-68
2022/11/23 14:00:46;;;;;;;13.18;2.92;;;;;;;;;;5018296;28;20036;-67
2022/11/23 14:03:30;;;;;;;10.07;2.67;;;;;;;;;;5019906;28;20034;-67
2022/11/23 14:05:59;;;;;;;12.63;3.13;;;;;;;;;;5005793;28;20601;-68
2022/11/23 14:08:26;;;;;;;14.73;2.72;;;;;;;;;;4998991;28;20239;-68
2022/11/23 14:10:54;;;;;;;10.00;2.45;;;;;;;;;;5000747;28;20036;-68
2022/11/23 14:13:31;;;;;;;12.57;2.28;;;;;;;;;;5003543;28;20592;-67
2022/11/23 14:15:59;;;;;;;10.65;2.88;;;;;;;;;;5020279;28;20029;-67
2022/11/23 14:18:26;;;;;;;8.75;2.45;;;;;;;;;;5022171;28;20530;-67
2022/11/23 14:21:02;;;;;;;9.77;2.50;;;;;;;;;;4997922;28;20147;-67
2022/11/23 14:23:47;;;;;;;9.43;1.83;;;;;;;;;;5002985;28;20032;-69
2022/11/23 14:26:15;;;;;;;10.02;2.60;;;;;;;;;;5023546;28;20037;-67
2022/11/23 14:28:44;;;;;;;9.23;2.13;;;;;;;;;;5005027;28;20120;-67
2022/11/23 14:31:17;;;;;;;9.65;2.45;;;;;;;;;;5000723;28;20439;-67
2022/11/23 14:34:00;;;;;;;10.02;2.50;;;;;;;;;;5022286;28;20028;-69
2022/11/23 14:36:33;;;;;;;9.52;2.33;;;;;;;;;;5023168;28;20044;-68
2022/11/23 14:39:18;;;;;;;9.65;2.30;;;;;;;;;;5018957;28;20028;-66
2022/11/23 14:41:45;;;;;;;11.38;2.65;;;;;;;;;;5023294;28;20068;-67
2022/11/23 14:44:13;;;;;;;10.60;2.22;;;;;;;;;;5020304;28;20408;-67
2022/11/23 14:47:03;;;;;;;10.55;2.28;;;;;;;;;;5006659;28;20033;-67
2022/11/23 14:49:29;;;;;;;11.65;2.63;;;;;;;;;;5011613;28;20045;-68
2022/11/23 14:51:56;;;;;;;12.20;2.63;;;;;;;;;;4999655;28;20029;-68
2022/11/23 14:54:22;;;;;;;12.40;2.60;;;;;;;;;;5016539;28;20526;-68